sensor_id;sensor_type;location;lat;lon;timestamp;pressure;altitude;pressure_sealevel;temperature;humidity
40954;BME280;26686;50.130;8.710;2023-09-07T00:02:37;100518.09;;;23.14;50.45
40954;BME280;26686;50.130;8.710;2023-09-07T00:07:42;100517.84;;;23.09;50.42
40954;BME280;26686;50.130;8.710;2023-09-07T00:12:44;100525.31;;;23.07;50.25
40954;BME280;26686;50.130;8.710;2023-09-07T00:17:45;100523.22;;;23.02;50.65
40954;BME280;26686;50.130;8.710;2023-09-07T00:22:47;100512.72;;;22.92;51.04
40954;BME280;26686;50.130;8.710;2023-09-07T00:27:48;100519.31;;;22.83;51.21
40954;BME280;26686;50.130;8.710;2023-09-07T00:32:50;100521.78;;;22.78;51.77
40954;BME280;26686;50.130;8.710;2023-09-07T00:37:51;100513.78;;;22.70;51.96
40954;BME280;26686;50.130;8.710;2023-09-07T00:42:53;100509.16;;;22.64;52.14
40954;BME280;26686;50.130;8.710;2023-09-07T00:47:55;100510.59;;;22.59;52.49
40954;BME280;26686;50.130;8.710;2023-09-07T00:52:57;100508.28;;;22.56;52.33
40954;BME280;26686;50.130;8.710;2023-09-07T00:58:04;100504.88;;;22.48;52.38
40954;BME280;26686;50.130;8.710;2023-09-07T01:03:05;100511.50;;;22.45;52.88
40954;BME280;26686;50.130;8.710;2023-09-07T01:08:17;100495.63;;;22.42;53.48
40954;BME280;26686;50.130;8.710;2023-09-07T01:13:20;100506.09;;;22.45;53.09
40954;BME280;26686;50.130;8.710;2023-09-07T01:18:22;100499.38;;;22.41;52.92
40954;BME280;26686;50.130;8.710;2023-09-07T01:23:26;100489.31;;;22.35;53.34
40954;BME280;26686;50.130;8.710;2023-09-07T01:28:27;100491.94;;;22.28;53.38
40954;BME280;26686;50.130;8.710;2023-09-07T01:33:30;100487.50;;;22.20;53.52
40954;BME280;26686;50.130;8.710;2023-09-07T01:38:31;100476.50;;;22.07;53.57
40954;BME280;26686;50.130;8.710;2023-09-07T01:43:33;100495.34;;;22.15;55.17
40954;BME280;26686;50.130;8.710;2023-09-07T01:48:34;100498.97;;;22.01;54.79
40954;BME280;26686;50.130;8.710;2023-09-07T01:53:36;100502.22;;;21.96;55.28
40954;BME280;26686;50.130;8.710;2023-09-07T01:58:38;100505.91;;;21.88;55.57
40954;BME280;26686;50.130;8.710;2023-09-07T02:03:39;100510.06;;;21.84;55.45
40954;BME280;26686;50.130;8.710;2023-09-07T02:08:41;100474.16;;;21.61;55.79
40954;BME280;26686;50.130;8.710;2023-09-07T02:13:43;100510.78;;;21.78;56.05
40954;BME280;26686;50.130;8.710;2023-09-07T02:18:48;100508.66;;;21.74;56.23
40954;BME280;26686;50.130;8.710;2023-09-07T02:23:51;100506.53;;;21.69;56.32
40954;BME280;26686;50.130;8.710;2023-09-07T02:28:52;100504.38;;;21.64;57.00
40954;BME280;26686;50.130;8.710;2023-09-07T02:33:53;100496.00;;;21.59;57.25
40954;BME280;26686;50.130;8.710;2023-09-07T02:38:55;100495.53;;;21.56;57.43
40954;BME280;26686;50.130;8.710;2023-09-07T02:43:56;100493.38;;;21.51;57.37
40954;BME280;26686;50.130;8.710;2023-09-07T02:48:58;100498.50;;;21.46;57.93
40954;BME280;26686;50.130;8.710;2023-09-07T02:54:01;100491.59;;;21.43;57.69
40954;BME280;26686;50.130;8.710;2023-09-07T02:59:02;100486.13;;;21.36;57.66
40954;BME280;26686;50.130;8.710;2023-09-07T03:04:04;100493.75;;;21.33;58.26
40954;BME280;26686;50.130;8.710;2023-09-07T03:09:06;100493.88;;;21.25;58.26
40954;BME280;26686;50.130;8.710;2023-09-07T03:14:10;100498.09;;;21.27;58.45
40954;BME280;26686;50.130;8.710;2023-09-07T03:19:11;100482.13;;;21.17;58.58
40954;BME280;26686;50.130;8.710;2023-09-07T03:24:13;100482.13;;;21.17;58.62
40954;BME280;26686;50.130;8.710;2023-09-07T03:29:16;100497.34;;;21.18;58.82
40954;BME280;26686;50.130;8.710;2023-09-07T03:34:18;100494.63;;;21.18;58.62
40954;BME280;26686;50.130;8.710;2023-09-07T03:39:20;100479.50;;;21.09;58.79
40954;BME280;26686;50.130;8.710;2023-09-07T03:44:24;100495.75;;;21.09;58.86
40954;BME280;26686;50.130;8.710;2023-09-07T03:49:25;100482.94;;;21.03;59.00
40954;BME280;26686;50.130;8.710;2023-09-07T03:54:26;100503.69;;;21.11;58.93
40954;BME280;26686;50.130;8.710;2023-09-07T03:59:28;100505.72;;;21.09;58.95
40954;BME280;26686;50.130;8.710;2023-09-07T04:04:29;100469.41;;;20.88;58.81
40954;BME280;26686;50.130;8.710;2023-09-07T04:09:31;100508.25;;;21.10;58.93
40954;BME280;26686;50.130;8.710;2023-09-07T04:14:32;100492.84;;;20.96;58.95
40954;BME280;26686;50.130;8.710;2023-09-07T04:19:34;100512.34;;;21.06;59.16
40954;BME280;26686;50.130;8.710;2023-09-07T04:24:35;100509.34;;;21.01;59.07
40954;BME280;26686;50.130;8.710;2023-09-07T04:29:37;100500.28;;;20.94;59.10
40954;BME280;26686;50.130;8.710;2023-09-07T04:34:38;100515.16;;;20.98;59.25
40954;BME280;26686;50.130;8.710;2023-09-07T04:39:40;100486.94;;;20.77;59.24
40954;BME280;26686;50.130;8.710;2023-09-07T04:44:41;100519.78;;;20.89;59.86
40954;BME280;26686;50.130;8.710;2023-09-07T04:49:48;100524.06;;;20.83;59.63
40954;BME280;26686;50.130;8.710;2023-09-07T04:54:51;100531.91;;;20.78;60.01
40954;BME280;26686;50.130;8.710;2023-09-07T04:59:52;100532.28;;;20.75;60.12
40954;BME280;26686;50.130;8.710;2023-09-07T05:04:54;100518.50;;;20.62;59.88
40954;BME280;26686;50.130;8.710;2023-09-07T05:09:55;100538.06;;;20.72;60.34
40954;BME280;26686;50.130;8.710;2023-09-07T05:14:57;100543.47;;;20.72;60.43
40954;BME280;26686;50.130;8.710;2023-09-07T05:19:59;100537.75;;;20.67;60.23
40954;BME280;26686;50.130;8.710;2023-09-07T05:25:00;100539.78;;;20.65;60.54
40954;BME280;26686;50.130;8.710;2023-09-07T05:30:04;100538.63;;;20.59;59.92
40954;BME280;26686;50.130;8.710;2023-09-07T05:35:05;100549.94;;;20.63;60.31
40954;BME280;26686;50.130;8.710;2023-09-07T05:40:07;100555.34;;;20.63;60.69
40954;BME280;26686;50.130;8.710;2023-09-07T05:45:09;100546.56;;;20.61;61.32
40954;BME280;26686;50.130;8.710;2023-09-07T05:50:11;100573.88;;;20.74;60.96
40954;BME280;26686;50.130;8.710;2023-09-07T05:55:12;100566.78;;;20.73;60.55
40954;BME280;26686;50.130;8.710;2023-09-07T06:00:14;100559.97;;;20.77;61.00
40954;BME280;26686;50.130;8.710;2023-09-07T06:05:17;100555.53;;;20.84;60.71
40954;BME280;26686;50.130;8.710;2023-09-07T06:10:19;100566.47;;;21.06;60.63
40954;BME280;26686;50.130;8.710;2023-09-07T06:15:20;100549.31;;;21.14;61.04
40954;BME280;26686;50.130;8.710;2023-09-07T06:20:22;100550.34;;;21.28;60.74
40954;BME280;26686;50.130;8.710;2023-09-07T06:25:23;100557.25;;;21.45;59.92
40954;BME280;26686;50.130;8.710;2023-09-07T06:30:25;100562.66;;;21.60;59.39
40954;BME280;26686;50.130;8.710;2023-09-07T06:35:26;100546.13;;;21.70;59.76
40954;BME280;26686;50.130;8.710;2023-09-07T06:40:28;100569.72;;;21.91;58.85
40954;BME280;26686;50.130;8.710;2023-09-07T06:45:29;100570.06;;;22.03;58.58
40954;BME280;26686;50.130;8.710;2023-09-07T06:50:31;100574.44;;;22.19;58.18
40954;BME280;26686;50.130;8.710;2023-09-07T06:55:32;100568.50;;;22.30;59.00
40954;BME280;26686;50.130;8.710;2023-09-07T07:00:33;100580.41;;;22.51;57.77
40954;BME280;26686;50.130;8.710;2023-09-07T07:05:35;100569.22;;;22.60;56.42
40954;BME280;26686;50.130;8.710;2023-09-07T07:10:36;100592.56;;;22.83;56.45
40954;BME280;26686;50.130;8.710;2023-09-07T07:15:38;100595.59;;;22.95;55.93
40954;BME280;26686;50.130;8.710;2023-09-07T07:20:40;100595.53;;;23.10;55.20
40954;BME280;26686;50.130;8.710;2023-09-07T07:25:43;100594.41;;;23.26;54.48
40954;BME280;26686;50.130;8.710;2023-09-07T07:30:45;100588.84;;;23.41;53.48
40954;BME280;26686;50.130;8.710;2023-09-07T07:35:46;100585.94;;;23.42;54.15
40954;BME280;26686;50.130;8.710;2023-09-07T07:40:48;100585.81;;;23.57;54.59
40954;BME280;26686;50.130;8.710;2023-09-07T07:45:53;100594.25;;;23.76;54.92
40954;BME280;26686;50.130;8.710;2023-09-07T07:50:55;100596.03;;;23.97;54.16
40954;BME280;26686;50.130;8.710;2023-09-07T07:55:56;100594.84;;;24.13;53.13
40954;BME280;26686;50.130;8.710;2023-09-07T08:00:58;100583.78;;;24.21;52.81
40954;BME280;26686;50.130;8.710;2023-09-07T08:06:00;100594.28;;;24.38;52.51
40954;BME280;26686;50.130;8.710;2023-09-07T08:11:02;100586.97;;;24.51;52.78
40954;BME280;26686;50.130;8.710;2023-09-07T08:16:06;100579.69;;;24.65;51.99
40954;BME280;26686;50.130;8.710;2023-09-07T08:21:08;100579.06;;;24.90;51.14
40954;BME280;26686;50.130;8.710;2023-09-07T08:26:10;100579.06;;;25.03;51.08
40954;BME280;26686;50.130;8.710;2023-09-07T08:31:11;100580.28;;;25.14;51.05
40954;BME280;26686;50.130;8.710;2023-09-07T08:36:15;100575.03;;;25.26;50.81
40954;BME280;26686;50.130;8.710;2023-09-07T08:41:20;100568.94;;;25.51;50.29
40954;BME280;26686;50.130;8.710;2023-09-07T08:46:22;100580.38;;;25.73;50.06
40954;BME280;26686;50.130;8.710;2023-09-07T08:51:24;100587.44;;;25.87;50.54
40954;BME280;26686;50.130;8.710;2023-09-07T08:56:29;100584.69;;;25.94;49.38
40954;BME280;26686;50.130;8.710;2023-09-07T09:01:34;100575.03;;;25.98;50.40
40954;BME280;26686;50.130;8.710;2023-09-07T09:06:35;100565.34;;;26.09;49.47
40954;BME280;26686;50.130;8.710;2023-09-07T09:11:37;100580.28;;;26.38;49.23
40954;BME280;26686;50.130;8.710;2023-09-07T09:16:38;100588.94;;;26.60;49.25
40954;BME280;26686;50.130;8.710;2023-09-07T09:21:40;100574.94;;;26.82;48.00
40954;BME280;26686;50.130;8.710;2023-09-07T09:26:41;100564.00;;;27.07;47.37
40954;BME280;26686;50.130;8.710;2023-09-07T09:31:43;100560.91;;;27.22;46.65
40954;BME280;26686;50.130;8.710;2023-09-07T09:36:45;100561.44;;;27.31;46.53
40954;BME280;26686;50.130;8.710;2023-09-07T09:41:46;100561.53;;;27.61;45.57
40954;BME280;26686;50.130;8.710;2023-09-07T09:46:49;100555.44;;;27.78;44.68
40954;BME280;26686;50.130;8.710;2023-09-07T09:51:52;100547.06;;;27.91;43.59
40954;BME280;26686;50.130;8.710;2023-09-07T09:56:53;100546.91;;;28.04;44.33
40954;BME280;26686;50.130;8.710;2023-09-07T10:01:55;100522.44;;;28.21;43.82
40954;BME280;26686;50.130;8.710;2023-09-07T10:06:59;100527.03;;;28.51;43.30
40954;BME280;26686;50.130;8.710;2023-09-07T10:12:03;100518.41;;;28.78;42.09
40954;BME280;26686;50.130;8.710;2023-09-07T10:17:07;100524.81;;;29.31;41.88
40954;BME280;26686;50.130;8.710;2023-09-07T10:22:20;100511.66;;;29.45;41.40
40954;BME280;26686;50.130;8.710;2023-09-07T10:27:22;100509.13;;;29.55;38.96
40954;BME280;26686;50.130;8.710;2023-09-07T10:32:23;100509.13;;;29.55;39.45
40954;BME280;26686;50.130;8.710;2023-09-07T10:37:28;100491.06;;;29.71;39.64
40954;BME280;26686;50.130;8.710;2023-09-07T10:42:30;100502.88;;;30.01;40.35
40954;BME280;26686;50.130;8.710;2023-09-07T10:47:34;100502.31;;;30.32;39.54
40954;BME280;26686;50.130;8.710;2023-09-07T10:52:35;100469.47;;;30.38;38.39
40954;BME280;26686;50.130;8.710;2023-09-07T10:57:47;100496.50;;;30.80;38.23
40954;BME280;26686;50.130;8.710;2023-09-07T11:02:49;100493.88;;;31.07;37.62
40954;BME280;26686;50.130;8.710;2023-09-07T11:07:50;100484.38;;;31.15;37.44
40954;BME280;26686;50.130;8.710;2023-09-07T11:12:52;100479.19;;;31.41;37.64
40954;BME280;26686;50.130;8.710;2023-09-07T11:17:54;100468.16;;;31.58;36.66
40954;BME280;26686;50.130;8.710;2023-09-07T11:22:55;100469.03;;;31.90;36.90
40954;BME280;26686;50.130;8.710;2023-09-07T11:28:06;100455.53;;;32.16;35.44
40954;BME280;26686;50.130;8.710;2023-09-07T11:33:08;100464.53;;;32.44;35.27
40954;BME280;26686;50.130;8.710;2023-09-07T11:38:13;100466.22;;;32.88;34.71
40954;BME280;26686;50.130;8.710;2023-09-07T11:43:15;100465.31;;;33.20;33.42
40954;BME280;26686;50.130;8.710;2023-09-07T11:48:17;100456.31;;;33.50;32.51
40954;BME280;26686;50.130;8.710;2023-09-07T11:53:18;100464.38;;;33.77;31.58
40954;BME280;26686;50.130;8.710;2023-09-07T11:58:20;100455.59;;;34.32;31.66
40954;BME280;26686;50.130;8.710;2023-09-07T12:03:21;100441.16;;;34.66;31.44
40954;BME280;26686;50.130;8.710;2023-09-07T12:08:23;100439.78;;;34.89;29.86
40954;BME280;26686;50.130;8.710;2023-09-07T12:13:24;100448.56;;;34.96;29.91
40954;BME280;26686;50.130;8.710;2023-09-07T12:18:27;100439.38;;;35.11;29.54
40954;BME280;26686;50.130;8.710;2023-09-07T12:23:29;100439.88;;;35.29;30.49
40954;BME280;26686;50.130;8.710;2023-09-07T12:28:32;100438.31;;;35.62;28.57
40954;BME280;26686;50.130;8.710;2023-09-07T12:33:33;100416.00;;;35.88;28.28
40954;BME280;26686;50.130;8.710;2023-09-07T12:38:35;100412.53;;;36.06;29.17
40954;BME280;26686;50.130;8.710;2023-09-07T12:43:37;100420.38;;;35.94;27.92
40954;BME280;26686;50.130;8.710;2023-09-07T12:48:38;100423.09;;;35.99;27.99
40954;BME280;26686;50.130;8.710;2023-09-07T12:53:40;100419.78;;;35.63;28.67
40954;BME280;26686;50.130;8.710;2023-09-07T12:58:41;100420.53;;;35.29;28.92
40954;BME280;26686;50.130;8.710;2023-09-07T13:03:43;100396.84;;;35.07;28.74
40954;BME280;26686;50.130;8.710;2023-09-07T13:08:44;100417.38;;;34.91;28.59
40954;BME280;26686;50.130;8.710;2023-09-07T13:13:46;100402.56;;;34.35;29.21
40954;BME280;26686;50.130;8.710;2023-09-07T13:18:47;100398.66;;;34.57;29.59
40954;BME280;26686;50.130;8.710;2023-09-07T13:23:48;100384.00;;;34.51;29.63
40954;BME280;26686;50.130;8.710;2023-09-07T13:28:50;100386.50;;;34.47;29.13
40954;BME280;26686;50.130;8.710;2023-09-07T13:33:51;100380.47;;;34.35;29.96
40954;BME280;26686;50.130;8.710;2023-09-07T13:38:53;100377.72;;;33.99;31.19
40954;BME280;26686;50.130;8.710;2023-09-07T13:43:57;100374.97;;;33.78;30.90
40954;BME280;26686;50.130;8.710;2023-09-07T13:49:00;100363.91;;;33.63;31.00
40954;BME280;26686;50.130;8.710;2023-09-07T13:54:01;100355.88;;;33.51;31.31
40954;BME280;26686;50.130;8.710;2023-09-07T13:59:03;100361.06;;;33.22;31.34
40954;BME280;26686;50.130;8.710;2023-09-07T14:04:06;100352.97;;;32.89;32.28
40954;BME280;26686;50.130;8.710;2023-09-07T14:09:07;100347.63;;;32.67;32.23
40954;BME280;26686;50.130;8.710;2023-09-07T14:14:10;100346.16;;;32.54;32.87
40954;BME280;26686;50.130;8.710;2023-09-07T14:19:12;100340.78;;;32.32;33.18
40954;BME280;26686;50.130;8.710;2023-09-07T14:24:13;100352.72;;;32.05;33.46
40954;BME280;26686;50.130;8.710;2023-09-07T14:29:16;100349.03;;;31.89;34.15
40954;BME280;26686;50.130;8.710;2023-09-07T14:34:17;100334.81;;;31.70;34.30
40954;BME280;26686;50.130;8.710;2023-09-07T14:39:18;100329.44;;;31.53;34.77
40954;BME280;26686;50.130;8.710;2023-09-07T14:44:25;100342.53;;;31.14;34.81
40954;BME280;26686;50.130;8.710;2023-09-07T14:49:26;100329.75;;;31.02;35.74
40954;BME280;26686;50.130;8.710;2023-09-07T14:54:28;100315.81;;;30.87;35.87
40954;BME280;26686;50.130;8.710;2023-09-07T14:59:29;100330.44;;;30.93;35.60
40954;BME280;26686;50.130;8.710;2023-09-07T15:04:31;100321.50;;;30.80;35.86
40954;BME280;26686;50.130;8.710;2023-09-07T15:09:33;100325.66;;;30.61;35.70
40954;BME280;26686;50.130;8.710;2023-09-07T15:14:34;100318.78;;;30.58;36.33
40954;BME280;26686;50.130;8.710;2023-09-07T15:19:35;100311.47;;;30.47;34.92
40954;BME280;26686;50.130;8.710;2023-09-07T15:24:37;100321.38;;;30.31;34.62
40954;BME280;26686;50.130;8.710;2023-09-07T15:29:38;100327.63;;;30.26;34.39
40954;BME280;26686;50.130;8.710;2023-09-07T15:34:40;100317.09;;;30.18;34.63
40954;BME280;26686;50.130;8.710;2023-09-07T15:39:41;100320.00;;;30.11;34.38
40954;BME280;26686;50.130;8.710;2023-09-07T15:44:47;100320.69;;;30.02;34.79
40954;BME280;26686;50.130;8.710;2023-09-07T15:49:51;100312.88;;;29.93;34.65
40954;BME280;26686;50.130;8.710;2023-09-07T15:54:52;100318.53;;;29.87;34.14
40954;BME280;26686;50.130;8.710;2023-09-07T15:59:54;100292.97;;;29.69;34.40
40954;BME280;26686;50.130;8.710;2023-09-07T16:04:57;100319.66;;;29.74;34.88
40954;BME280;26686;50.130;8.710;2023-09-07T16:09:58;100323.50;;;29.73;34.85
40954;BME280;26686;50.130;8.710;2023-09-07T16:15:00;100311.19;;;29.58;34.92
40954;BME280;26686;50.130;8.710;2023-09-07T16:20:01;100304.84;;;29.41;35.37
40954;BME280;26686;50.130;8.710;2023-09-07T16:25:03;100323.66;;;29.49;35.82
40954;BME280;26686;50.130;8.710;2023-09-07T16:30:08;100320.72;;;29.39;35.79
40954;BME280;26686;50.130;8.710;2023-09-07T16:35:10;100320.16;;;29.37;36.44
40954;BME280;26686;50.130;8.710;2023-09-07T16:40:12;100320.44;;;29.23;36.72
40954;BME280;26686;50.130;8.710;2023-09-07T16:45:14;100326.75;;;29.24;36.94
40954;BME280;26686;50.130;8.710;2023-09-07T16:50:16;100311.91;;;29.08;37.13
40954;BME280;26686;50.130;8.710;2023-09-07T16:55:17;100330.00;;;29.09;37.05
40954;BME280;26686;50.130;8.710;2023-09-07T17:00:19;100327.19;;;29.04;37.02
40954;BME280;26686;50.130;8.710;2023-09-07T17:05:22;100320.91;;;28.91;38.00
40954;BME280;26686;50.130;8.710;2023-09-07T17:10:23;100313.66;;;28.85;38.09
40954;BME280;26686;50.130;8.710;2023-09-07T17:15:25;100331.75;;;28.86;38.83
40954;BME280;26686;50.130;8.710;2023-09-07T17:20:27;100332.72;;;28.80;39.09
40954;BME280;26686;50.130;8.710;2023-09-07T17:25:32;100329.28;;;28.73;39.30
40954;BME280;26686;50.130;8.710;2023-09-07T17:30:37;100330.16;;;28.62;39.46
40954;BME280;26686;50.130;8.710;2023-09-07T17:35:38;100334.91;;;28.54;39.42
40954;BME280;26686;50.130;8.710;2023-09-07T17:40:40;100325.41;;;28.45;39.63
40954;BME280;26686;50.130;8.710;2023-09-07T17:45:41;100311.34;;;28.30;39.91
40954;BME280;26686;50.130;8.710;2023-09-07T17:50:42;100327.09;;;28.23;40.13
40954;BME280;26686;50.130;8.710;2023-09-07T17:55:44;100338.28;;;28.21;40.62
40954;BME280;26686;50.130;8.710;2023-09-07T18:00:46;100334.44;;;28.10;40.63
40954;BME280;26686;50.130;8.710;2023-09-07T18:05:47;100331.75;;;27.98;40.61
40954;BME280;26686;50.130;8.710;2023-09-07T18:10:49;100326.81;;;27.89;41.48
40954;BME280;26686;50.130;8.710;2023-09-07T18:15:50;100336.56;;;27.84;41.06
40954;BME280;26686;50.130;8.710;2023-09-07T18:20:52;100331.53;;;27.69;40.97
40954;BME280;26686;50.130;8.710;2023-09-07T18:25:53;100344.03;;;27.65;41.21
40954;BME280;26686;50.130;8.710;2023-09-07T18:30:56;100339.59;;;27.52;41.21
40954;BME280;26686;50.130;8.710;2023-09-07T18:36:05;100341.59;;;27.45;41.59
40954;BME280;26686;50.130;8.710;2023-09-07T18:41:08;100346.94;;;27.40;41.42
40954;BME280;26686;50.130;8.710;2023-09-07T18:46:09;100342.84;;;27.31;41.85
40954;BME280;26686;50.130;8.710;2023-09-07T18:51:11;100346.69;;;27.23;42.08
40954;BME280;26686;50.130;8.710;2023-09-07T18:56:13;100345.59;;;27.12;41.63
40954;BME280;26686;50.130;8.710;2023-09-07T19:01:16;100330.28;;;26.93;41.64
40954;BME280;26686;50.130;8.710;2023-09-07T19:06:18;100343.88;;;26.99;42.17
40954;BME280;26686;50.130;8.710;2023-09-07T19:11:20;100326.78;;;26.74;41.58
40954;BME280;26686;50.130;8.710;2023-09-07T19:16:21;100341.84;;;26.76;41.69
40954;BME280;26686;50.130;8.710;2023-09-07T19:21:27;100351.25;;;26.80;42.00
40954;BME280;26686;50.130;8.710;2023-09-07T19:26:37;100339.47;;;26.61;42.26
40954;BME280;26686;50.130;8.710;2023-09-07T19:31:39;100354.56;;;26.64;42.25
40954;BME280;26686;50.130;8.710;2023-09-07T19:36:41;100340.47;;;26.49;43.03
40954;BME280;26686;50.130;8.710;2023-09-07T19:41:43;100354.69;;;26.51;43.40
40954;BME280;26686;50.130;8.710;2023-09-07T19:46:44;100351.88;;;26.39;43.90
40954;BME280;26686;50.130;8.710;2023-09-07T19:51:46;100356.56;;;26.32;44.95
40954;BME280;26686;50.130;8.710;2023-09-07T19:56:47;100354.59;;;26.20;45.17
40954;BME280;26686;50.130;8.710;2023-09-07T20:06:57;100359.50;;;26.11;45.15
40954;BME280;26686;50.130;8.710;2023-09-07T20:11:59;100366.44;;;26.07;45.47
40954;BME280;26686;50.130;8.710;2023-09-07T20:17:01;100351.03;;;25.94;46.08
40954;BME280;26686;50.130;8.710;2023-09-07T20:22:02;100359.88;;;25.90;46.44
40954;BME280;26686;50.130;8.710;2023-09-07T20:27:04;100359.91;;;25.83;46.23
40954;BME280;26686;50.130;8.710;2023-09-07T20:32:06;100356.63;;;25.74;47.57
40954;BME280;26686;50.130;8.710;2023-09-07T20:37:09;100356.72;;;25.61;46.92
40954;BME280;26686;50.130;8.710;2023-09-07T20:42:10;100359.28;;;25.56;47.18
40954;BME280;26686;50.130;8.710;2023-09-07T20:47:12;100375.84;;;25.54;47.62
40954;BME280;26686;50.130;8.710;2023-09-07T20:52:13;100372.97;;;25.49;48.58
40954;BME280;26686;50.130;8.710;2023-09-07T20:57:16;100353.09;;;25.35;49.10
40954;BME280;26686;50.130;8.710;2023-09-07T21:02:17;100364.63;;;25.37;49.41
40954;BME280;26686;50.130;8.710;2023-09-07T21:07:19;100347.75;;;25.15;49.49
40954;BME280;26686;50.130;8.710;2023-09-07T21:12:20;100366.16;;;25.20;49.90
40954;BME280;26686;50.130;8.710;2023-09-07T21:17:22;100377.94;;;25.14;50.27
40954;BME280;26686;50.130;8.710;2023-09-07T21:22:23;100378.59;;;25.02;50.28
40954;BME280;26686;50.130;8.710;2023-09-07T21:27:26;100385.09;;;25.01;50.58
40954;BME280;26686;50.130;8.710;2023-09-07T21:32:27;100380.09;;;24.92;50.93
40954;BME280;26686;50.130;8.710;2023-09-07T21:37:30;100376.78;;;24.83;50.87
40954;BME280;26686;50.130;8.710;2023-09-07T21:42:31;100383.50;;;24.80;50.97
40954;BME280;26686;50.130;8.710;2023-09-07T21:47:33;100380.59;;;24.68;51.37
40954;BME280;26686;50.130;8.710;2023-09-07T21:52:35;100386.91;;;24.62;52.67
40954;BME280;26686;50.130;8.710;2023-09-07T21:57:37;100376.63;;;24.51;52.87
40954;BME280;26686;50.130;8.710;2023-09-07T22:02:38;100381.03;;;24.52;52.37
40954;BME280;26686;50.130;8.710;2023-09-07T22:07:40;100377.47;;;24.45;52.56
40954;BME280;26686;50.130;8.710;2023-09-07T22:12:42;100376.44;;;24.39;53.05
40954;BME280;26686;50.130;8.710;2023-09-07T22:17:43;100373.75;;;24.32;53.35
40954;BME280;26686;50.130;8.710;2023-09-07T22:22:46;100375.00;;;24.23;53.11
40954;BME280;26686;50.130;8.710;2023-09-07T22:27:48;100375.66;;;24.18;52.83
40954;BME280;26686;50.130;8.710;2023-09-07T22:32:49;100385.66;;;24.18;52.65
40954;BME280;26686;50.130;8.710;2023-09-07T22:37:51;100376.47;;;24.12;53.16
40954;BME280;26686;50.130;8.710;2023-09-07T22:42:52;100366.63;;;24.05;52.67
40954;BME280;26686;50.130;8.710;2023-09-07T22:47:54;100382.53;;;24.08;52.90
40954;BME280;26686;50.130;8.710;2023-09-07T22:52:55;100387.34;;;24.06;52.92
40954;BME280;26686;50.130;8.710;2023-09-07T22:57:57;100387.16;;;24.00;53.11
40954;BME280;26686;50.130;8.710;2023-09-07T23:02:58;100387.75;;;23.96;53.36
40954;BME280;26686;50.130;8.710;2023-09-07T23:08:00;100382.31;;;23.89;54.39
40954;BME280;26686;50.130;8.710;2023-09-07T23:13:02;100380.81;;;23.80;54.56
40954;BME280;26686;50.130;8.710;2023-09-07T23:18:04;100377.69;;;23.70;54.20
40954;BME280;26686;50.130;8.710;2023-09-07T23:23:06;100371.81;;;23.59;53.75
40954;BME280;26686;50.130;8.710;2023-09-07T23:28:07;100375.56;;;23.58;54.57
40954;BME280;26686;50.130;8.710;2023-09-07T23:33:09;100367.63;;;23.50;54.73
40954;BME280;26686;50.130;8.710;2023-09-07T23:38:10;100355.28;;;23.41;55.34
40954;BME280;26686;50.130;8.710;2023-09-07T23:43:12;100375.56;;;23.45;55.16
40954;BME280;26686;50.130;8.710;2023-09-07T23:48:13;100375.09;;;23.41;55.29
40954;BME280;26686;50.130;8.710;2023-09-07T23:53:15;100358.56;;;23.29;55.53
40954;BME280;26686;50.130;8.710;2023-09-07T23:58:17;100378.22;;;23.32;55.02
